Detall de PIREP

Printer-friendly versionPDF version

[2012/11/02 08:10:00]
Flight IATA:CT2110
Pilot Number:041
Company ICAO:CAT
Aircraft Type:B763/F
PAX:123
Departing Airport: LEVC
Destination Airport: LEST
Alternate Airport:LEMG
Online: VATSIM
Route:CENTA A33 PRADO UN733 FORNO
Flight Level:F330
No Slew and time accel
No pause
Crash detect
Detect pilot in Cockpit between each 30 and 45 minutes
08:10 Zero fuel Weight: 236462 Lbs, Fuel Weight: 32522 Lbs
08:10 VATSIM:LEVC 020700Z 22010KT 9999 FEW040 16/09 Q1013 NOSIG
08:10 VATSIM:LEST 020700Z 22012KT 170V280 9999 SCT007 BKN015 12/12 Q1007 NOSIG
08:10 VOICE CATALONIAN
08:18 Parking Brakes off
08:24 Take-off
08:24 Take off Weight: 266769 Lbs
08:24 Wind: 239º @ 011 Knots Heading: 294º
08:24 POS N39º 29´ 19´´ W000º 28´ 49´´
08:24 Flaps:3 at 184 Knots
08:24 Gear Up: 189 Knots
08:24 Flaps:2 at 199 Knots
08:24 Flaps:1 at 208 Knots
08:24 Flaps:0 at 210 Knots
08:32 TOC
08:32 Fuel Weight: 25785 Lb
08:39 Wind:219º@005 Knots Heading: 297º Ground Speed: 450 Knots Altitude 33015 ft
08:54 Wind:224º@003 Knots Heading: 295º Ground Speed: 450 Knots Altitude 33041 ft
09:07 TOD
09:07 Fuel Weight: 20291 Lb
09:09 Wind:230º@003 Knots Heading: 304º Ground Speed: 434 Knots Altitude 29835 ft
09:24 Wind:213º@014 Knots Heading: 300º Ground Speed: 265 Knots Altitude 5095 ft
09:26 Flaps:1 at 223 Knots
09:26 Flaps:2 at 227 Knots
09:27 Flaps:3 at 188 Knots
09:28 Flaps:4 at 161 Knots
09:33 Gear Down: 165 Knots
09:34 TouchDown:Rate -265 ft/min Speed: 147 Knots
09:35 VATSIM:LEST 020830Z 22014G24KT 190V260 9999 SCT008 BKN015 12/12 Q1008 NOSIG
09:35 Land
09:35 Wind:219º@019 Knots
09:35 Heading: 165º
09:35 Flight Duration: 01:11
09:35 Landing Weight: 253559 Lbs
09:35 POS N42º 53´ 46´´ W008º 24´ 54´´
09:39 Parking brakes on
09:39 Block to Block Duration: 01:21
09:39 Final Fuel: 16382 Lbls
09:39 Spent Fuel: 16139 Lbls
09:39 Flight Length: 442 NM
09:39 TOD Land Length: 130 NM

Exportar CSV

Powered by Drupal - Modified by Danger4k